F/V Le Natif 2 — FKVW — position and weather

sailwx.info

Track history (hours):
 
Tides and Currents Weather Stations Pressure Air Temp Water Temp Dewpoint Dewpoint Depression Visibility Wind Speed Wind Dir Waves Ship Positions

F/V Le Natif 2

Last reported at 2017-Feb-26 02:26 UTC. Time now 2017-Feb-27 04:33 UTC.
Position N 45°43' W 001°52'.

Length 16 m.

Type: Fishing. MMSI: 228131600.

Date/timePositionNaut miles runAvg speedWind from/ knotsBaromVisibWave heightAir tempDewpointWater temp
2017-Feb-26 02:26N 45°43' W 001°52'24 1.5
2017-Feb-25 10:12N 46°06' W 001°55'5 7.9
2017-Feb-25 09:31N 46°12' W 001°55'8 8.2
2017-Feb-25 08:33N 46°20' W 001°56'8 8.4
2017-Feb-25 07:33N 46°28' W 001°57'9 8.6
2017-Feb-25 06:33N 46°37' W 001°57'5 5.1
2017-Feb-25 05:33N 46°42' W 001°57'0 0.0
2017-Feb-24 07:12N 46°42' W 001°57'0 0.0
2017-Feb-24 06:31N 46°42' W 001°57'0 0.0
2017-Feb-24 05:33N 46°42' W 001°57'0 0.0
2017-Feb-24 04:33N 46°42' W 001°57'1 0.8
2017-Feb-24 03:33N 46°41' W 001°57'9 8.7
2017-Feb-24 02:33N 46°35' W 002°05'9 8.6
2017-Feb-24 01:33N 46°28' W 002°13'15 2.8
2017-Feb-23 20:25N 46°13' W 002°15'5 0.6
2017-Feb-23 12:28N 46°18' W 002°16'3 2.5
2017-Feb-23 11:23N 46°16' W 002°14'12 2.1
2017-Feb-23 05:32N 46°28' W 002°12'8 8.5
2017-Feb-23 04:33N 46°35' W 002°05'9 8.5
2017-Feb-23 03:33N 46°41' W 001°57'2 2.3
2017-Feb-23 02:33N 46°40' W 001°59'9 9.0
2017-Feb-23 01:33N 46°33' W 002°08'10 9.0
2017-Feb-23 00:25N 46°25' W 002°17'9 9.1
2017-Feb-22 23:26N 46°18' W 002°25'6 5.9
2017-Feb-22 22:22N 46°12' W 002°30'2 1.7
2017-Feb-22 21:12N 46°11' W 002°27'8 8.7
2017-Feb-22 20:20N 46°05' W 002°22'7 8.7
2017-Feb-22 19:33N 45°59' W 002°17'11 8.7
2017-Feb-22 18:18N 45°49' W 002°09'9 8.7
2017-Feb-22 17:18N 45°42' W 002°03'6 8.6
2017-Feb-22 16:33N 45°36' W 001°58'4 0.8
2017-Feb-22 12:10N 45°34' W 002°02'11 2.9
2017-Feb-22 08:11N 45°29' W 001°47'35 2.9
2017-Feb-21 20:09N 44°56' W 001°32'94 2.0
2017-Feb-19 20:33N 46°25' W 002°15'9 8.6
2017-Feb-19 19:32N 46°32' W 002°07'9 8.7
2017-Feb-19 18:33N 46°39' W 001°60'  
2017-Feb-17 04:07N 46°42' W 001°57'2 3.2
2017-Feb-17 03:33N 46°41' W 001°58'9 9.0
2017-Feb-17 02:33N 46°34' W 002°07'9 8.9
2017-Feb-17 01:33N 46°27' W 002°15'9 8.6
2017-Feb-17 00:31N 46°20' W 002°23'9 2.1
2017-Feb-16 20:12N 46°12' W 002°30'16 6.2
2017-Feb-16 17:33N 46°25' W 002°14'9 8.5
2017-Feb-16 16:33N 46°32' W 002°07'8 8.4
2017-Feb-16 15:33N 46°39' W 002°00'4 2.0
2017-Feb-16 13:29N 46°42' W 001°57'0 0.0
2017-Feb-16 12:33N 46°42' W 001°57'0 0.0
2017-Feb-16 11:33N 46°42' W 001°57'0 0.0
2017-Feb-16 10:33N 46°42' W 001°57'0 0.0
2017-Feb-16 09:33N 46°42' W 001°57'0 0.1
2017-Feb-16 08:33N 46°42' W 001°56'0 0.0
2017-Feb-16 07:33N 46°42' W 001°56'0 0.0
2017-Feb-16 03:32N 46°42' W 001°57'0 0.5
2017-Feb-16 02:32N 46°42' W 001°57'  
Track history (hours):
 
Tides and Currents Weather Stations Pressure Air Temp Water Temp Dewpoint Dewpoint Depression Visibility Wind Speed Wind Dir Waves Ship Positions

F/V Le Natif 2

Last reported at 2017-Feb-26 02:26 UTC. Time now 2017-Feb-27 04:33 UTC.
Position N 45°43' W 001°52'.

Length 16 m.

Type: Fishing. MMSI: 228131600.

Date/timePositionNaut miles runAvg speedWind from/ knotsBaromVisibWave heightAir tempDewpointWater temp
2017-Feb-26 02:26N 45°43' W 001°52'24 1.5
2017-Feb-25 10:12N 46°06' W 001°55'5 7.9
2017-Feb-25 09:31N 46°12' W 001°55'8 8.2
2017-Feb-25 08:33N 46°20' W 001°56'8 8.4
2017-Feb-25 07:33N 46°28' W 001°57'9 8.6
2017-Feb-25 06:33N 46°37' W 001°57'5 5.1
2017-Feb-25 05:33N 46°42' W 001°57'0 0.0
2017-Feb-24 07:12N 46°42' W 001°57'0 0.0
2017-Feb-24 06:31N 46°42' W 001°57'0 0.0
2017-Feb-24 05:33N 46°42' W 001°57'0 0.0
2017-Feb-24 04:33N 46°42' W 001°57'1 0.8
2017-Feb-24 03:33N 46°41' W 001°57'9 8.7
2017-Feb-24 02:33N 46°35' W 002°05'9 8.6
2017-Feb-24 01:33N 46°28' W 002°13'15 2.8
2017-Feb-23 20:25N 46°13' W 002°15'5 0.6
2017-Feb-23 12:28N 46°18' W 002°16'3 2.5
2017-Feb-23 11:23N 46°16' W 002°14'12 2.1
2017-Feb-23 05:32N 46°28' W 002°12'8 8.5
2017-Feb-23 04:33N 46°35' W 002°05'9 8.5
2017-Feb-23 03:33N 46°41' W 001°57'2 2.3
2017-Feb-23 02:33N 46°40' W 001°59'9 9.0
2017-Feb-23 01:33N 46°33' W 002°08'10 9.0
2017-Feb-23 00:25N 46°25' W 002°17'9 9.1
2017-Feb-22 23:26N 46°18' W 002°25'6 5.9
2017-Feb-22 22:22N 46°12' W 002°30'2 1.7
2017-Feb-22 21:12N 46°11' W 002°27'8 8.7
2017-Feb-22 20:20N 46°05' W 002°22'7 8.7
2017-Feb-22 19:33N 45°59' W 002°17'11 8.7
2017-Feb-22 18:18N 45°49' W 002°09'9 8.7
2017-Feb-22 17:18N 45°42' W 002°03'6 8.6
2017-Feb-22 16:33N 45°36' W 001°58'4 0.8
2017-Feb-22 12:10N 45°34' W 002°02'11 2.9
2017-Feb-22 08:11N 45°29' W 001°47'35 2.9
2017-Feb-21 20:09N 44°56' W 001°32'94 2.0
2017-Feb-19 20:33N 46°25' W 002°15'9 8.6
2017-Feb-19 19:32N 46°32' W 002°07'9 8.7
2017-Feb-19 18:33N 46°39' W 001°60'  
2017-Feb-17 04:07N 46°42' W 001°57'2 3.2
2017-Feb-17 03:33N 46°41' W 001°58'9 9.0
2017-Feb-17 02:33N 46°34' W 002°07'9 8.9
2017-Feb-17 01:33N 46°27' W 002°15'9 8.6
2017-Feb-17 00:31N 46°20' W 002°23'9 2.1
2017-Feb-16 20:12N 46°12' W 002°30'16 6.2
2017-Feb-16 17:33N 46°25' W 002°14'9 8.5
2017-Feb-16 16:33N 46°32' W 002°07'8 8.4
2017-Feb-16 15:33N 46°39' W 002°00'4 2.0
2017-Feb-16 13:29N 46°42' W 001°57'0 0.0
2017-Feb-16 12:33N 46°42' W 001°57'0 0.0
2017-Feb-16 11:33N 46°42' W 001°57'0 0.0
2017-Feb-16 10:33N 46°42' W 001°57'0 0.0
2017-Feb-16 09:33N 46°42' W 001°57'0 0.1
2017-Feb-16 08:33N 46°42' W 001°56'0 0.0
2017-Feb-16 07:33N 46°42' W 001°56'0 0.0
2017-Feb-16 03:32N 46°42' W 001°57'0 0.5
2017-Feb-16 02:32N 46°42' W 001°57'  

Dump ship's entire track history